Time;durP1;ratioP1;P1;durP2;ratioP2;P2;SDS_P1;SDS_P2;PMS_P1;PMS_P2;Temp;Humidity;BMP_temperature;BMP_pressure;BME280_temperature;BME280_humidity;BME280_pressure;Samples;Min_cycle;Max_cycle;Signal;HPM_P1;HPM_P2
2022/07/25 00:01:11;;;;;;;13.90;11.37;;;;;;;22.96;100.00;63262.94;5071709;28;20650;-76
2022/07/25 00:03:38;;;;;;;12.77;11.53;;;;;;;23.00;100.00;63262.09;5088318;28;20650;-76
2022/07/25 00:06:07;;;;;;;13.53;11.47;;;;;;;23.01;100.00;63266.31;5073588;28;20209;-76
2022/07/25 00:08:35;;;;;;;13.70;12.10;;;;;;;23.06;100.00;63274.31;5072061;28;20192;-79
2022/07/25 00:11:03;;;;;;;13.17;11.73;;;;;;;23.04;100.00;63266.41;5067543;28;20208;-75
2022/07/25 00:13:32;;;;;;;12.97;11.67;;;;;;;23.14;100.00;63279.88;5071014;28;20254;-75
2022/07/25 00:16:01;;;;;;;14.30;11.53;;;;;;;22.29;100.00;63188.81;5071470;28;20664;-76
2022/07/25 00:18:29;;;;;;;12.87;11.57;;;;;;;23.20;100.00;63288.97;5084696;28;20241;-77
2022/07/25 00:20:56;;;;;;;12.83;11.17;;;;;;;23.22;100.00;63286.47;5071082;28;20225;-74
2022/07/25 00:23:25;;;;;;;12.87;11.57;;;;;;;23.17;100.00;63286.25;5070322;28;20223;-76
2022/07/25 00:25:52;;;;;;;12.83;11.53;;;;;;;22.54;100.00;63213.28;5077249;28;20227;-78
2022/07/25 00:28:20;;;;;;;13.27;11.97;;;;;;;23.20;100.00;63283.78;5091747;28;20204;-78
2022/07/25 00:30:49;;;;;;;14.60;11.63;;;;;;;23.35;100.00;63300.03;5064637;28;20206;-75
2022/07/25 00:33:16;;;;;;;13.23;11.87;;;;;;;23.34;100.00;63304.16;5091215;28;20314;-76
2022/07/25 00:35:43;;;;;;;13.03;11.67;;;;;;;23.32;100.00;63302.00;5084135;28;20556;-75
2022/07/25 00:38:10;;;;;;;14.23;11.67;;;;;;;22.62;100.00;63227.16;5084902;28;20212;-74
2022/07/25 00:40:37;;;;;;;13.17;11.87;;;;;;;23.01;100.00;63265.75;5071179;28;20229;-74
2022/07/25 00:43:04;;;;;;;14.93;13.30;;;;;;;23.28;100.00;63295.03;5091382;28;20201;-76
2022/07/25 00:45:31;;;;;;;12.50;11.27;;;;;;;22.59;100.00;63223.94;5090529;28;20195;-75
2022/07/25 00:48:00;;;;;;;13.13;11.73;;;;;;;23.39;100.00;63310.13;5090709;28;20196;-75
2022/07/25 00:50:28;;;;;;;12.87;11.50;;;;;;;22.38;100.00;63195.41;5090159;28;20553;-75
2022/07/25 00:52:57;;;;;;;13.23;11.80;;;;;;;22.86;100.00;63246.91;5090930;28;20257;-75
2022/07/25 00:55:25;;;;;;;13.90;12.50;;;;;;;23.16;100.00;63284.63;5092130;28;20222;-77
2022/07/25 00:57:53;;;;;;;13.37;11.87;;;;;;;23.19;100.00;63282.66;5091655;28;20188;-77
2022/07/25 01:00:21;;;;;;;16.33;12.83;;;;;;;23.09;100.00;63274.44;5091775;28;20584;-74
2022/07/25 01:02:48;;;;;;;12.93;11.33;;;;;;;22.55;100.00;63214.38;5094524;28;20271;-76
2022/07/25 01:05:16;;;;;;;14.23;12.20;;;;;;;23.33;100.00;63303.06;5093144;28;20201;-76
2022/07/25 01:07:44;;;;;;;13.60;12.17;;;;;;;23.33;100.00;63303.06;5079619;28;20207;-74
2022/07/25 01:10:11;;;;;;;12.77;11.47;;;;;;;23.35;100.00;63305.25;5069134;28;20632;-74
2022/07/25 01:12:47;;;;;;;14.10;12.13;;;;;;;22.99;100.00;63266.19;5066622;28;20203;-74
2022/07/25 01:15:14;;;;;;;14.73;12.37;;;;;;;22.84;100.00;63249.94;5071600;28;20590;-73
2022/07/25 01:17:41;;;;;;;13.50;12.10;;;;;;;23.17;100.00;63286.25;5074665;28;20205;-75
2022/07/25 01:20:14;;;;;;;13.23;11.87;;;;;;;23.11;100.00;63279.19;5073940;28;20222;-76
2022/07/25 01:22:42;;;;;;;13.90;12.03;;;;;;;23.11;100.00;63274.00;5074374;28;20208;-75
2022/07/25 01:25:09;;;;;;;14.03;12.40;;;;;;;23.08;100.00;63273.88;5074973;28;20196;-74
2022/07/25 01:27:37;;;;;;;13.83;12.37;;;;;;;22.18;100.00;63176.88;5073815;28;20233;-75
2022/07/25 01:30:06;;;;;;;13.37;11.73;;;;;;;23.06;100.00;63274.31;5074484;28;20201;-77
2022/07/25 01:32:33;;;;;;;12.63;11.37;;;;;;;23.06;100.00;63271.72;5090196;28;20196;-76
2022/07/25 01:35:00;;;;;;;16.10;12.00;;;;;;;23.11;100.00;63279.75;5083850;28;20200;-76
2022/07/25 01:37:29;;;;;;;14.80;13.00;;;;;;;22.87;100.00;63253.72;5073625;28;20197;-77
2022/07/25 01:39:57;;;;;;;15.17;13.00;;;;;;;22.96;100.00;63262.94;5073985;28;20242;-74
2022/07/25 01:42:25;;;;;;;16.27;12.23;;;;;;;22.87;100.00;63250.59;5073789;28;20722;-78
2022/07/25 01:44:52;;;;;;;14.03;12.70;;;;;;;23.04;100.00;63271.63;5073991;28;20204;-75
2022/07/25 01:47:19;;;;;;;15.10;13.33;;;;;;;22.97;100.00;63264.56;5073791;28;20644;-76
2022/07/25 01:49:46;;;;;;;15.30;12.77;;;;;;;22.98;100.00;63259.91;5085222;28;20657;-75
2022/07/25 01:52:14;;;;;;;14.30;12.90;;;;;;;22.83;100.00;63248.84;5075147;28;20200;-75
2022/07/25 01:54:43;;;;;;;14.70;12.70;;;;;;;22.87;100.00;63251.13;5073648;28;20681;-75
2022/07/25 01:57:10;;;;;;;13.97;11.97;;;;;;;22.47;100.00;63210.91;5073816;28;20205;-75
2022/07/25 01:59:39;;;;;;;15.47;12.53;;;;;;;22.57;100.00;63216.00;5073493;28;20246;-77
2022/07/25 02:02:06;;;;;;;15.73;13.47;;;;;;;22.47;100.00;63210.91;5075708;28;20246;-75
2022/07/25 02:04:34;;;;;;;16.70;13.30;;;;;;;22.61;100.00;63226.09;5084703;28;20658;-78
2022/07/25 02:07:04;;;;;;;14.20;12.73;;;;;;;22.60;100.00;63219.25;5092551;28;20211;-76
2022/07/25 02:09:31;;;;;;;16.20;13.00;;;;;;;22.00;100.00;63159.97;5081248;28;20219;-78
2022/07/25 02:11:59;;;;;;;16.17;13.83;;;;;;;22.46;100.00;63209.81;5091701;28;20195;-77
2022/07/25 02:14:26;;;;;;;16.23;13.23;;;;;;;21.65;100.00;63119.47;5080258;28;20201;-74
2022/07/25 02:16:53;;;;;;;16.13;14.17;;;;;;;22.52;100.00;63211.13;5073250;28;20203;-76
2022/07/25 02:19:22;;;;;;;13.83;12.43;;;;;;;22.44;100.00;63202.44;5073473;28;20617;-77
2022/07/25 02:21:48;;;;;;;14.93;13.20;;;;;;;22.36;100.00;63193.78;5073138;28;20197;-75
2022/07/25 02:24:16;;;;;;;14.73;13.17;;;;;;;22.18;100.00;63173.75;5072223;28;20270;-78
2022/07/25 02:26:43;;;;;;;15.87;13.60;;;;;;;22.51;100.00;63215.25;5073072;28;20228;-76
2022/07/25 02:29:12;;;;;;;16.17;13.43;;;;;;;22.54;100.00;63215.34;5073155;28;20290;-77
2022/07/25 02:31:39;;;;;;;16.23;14.40;;;;;;;22.54;100.00;63213.28;5091526;28;20202;-75
2022/07/25 02:34:06;;;;;;;15.40;13.73;;;;;;;22.42;100.00;63202.88;5092860;28;20670;-77
2022/07/25 02:36:33;;;;;;;15.10;13.57;;;;;;;22.39;100.00;63201.69;5092652;28;20207;-77
2022/07/25 02:39:00;;;;;;;16.23;13.40;;;;;;;22.24;100.00;63185.44;5080798;28;20204;-77
2022/07/25 02:41:28;;;;;;;14.30;12.80;;;;;;;22.37;100.00;63200.06;5072828;28;20228;-75
2022/07/25 02:43:56;;;;;;;16.60;13.33;;;;;;;22.28;100.00;63187.72;5075176;28;20212;-75
2022/07/25 02:46:26;;;;;;;15.90;13.37;;;;;;;22.37;100.00;63200.06;5092582;28;20249;-75
2022/07/25 02:48:53;;;;;;;15.77;14.10;;;;;;;22.37;100.00;63200.06;5092218;28;20214;-77
2022/07/25 02:51:20;;;;;;;18.13;13.77;;;;;;;22.20;100.00;63186.84;5082737;28;20208;-78
2022/07/25 02:53:47;;;;;;;14.57;12.93;;;;;;;22.25;100.00;63187.06;5077829;28;20192;-74
2022/07/25 02:56:15;;;;;;;15.30;13.70;;;;;;;21.80;100.00;63138.31;5082505;28;20667;-75
2022/07/25 02:58:42;;;;;;;14.53;13.13;;;;;;;21.76;100.00;63128.78;5071819;28;20686;-77
2022/07/25 03:01:09;;;;;;;14.70;13.17;;;;;;;22.31;100.00;63188.38;5072911;28;20246;-77
2022/07/25 03:03:37;;;;;;;14.53;13.13;;;;;;;22.26;100.00;63185.56;5086591;28;20195;-76
2022/07/25 03:06:05;;;;;;;15.17;13.50;;;;;;;22.37;100.00;63200.06;5092371;28;20287;-76
2022/07/25 03:08:33;;;;;;;15.53;13.50;;;;;;;22.25;100.00;63184.47;5094342;28;20206;-76
2022/07/25 03:11:01;;;;;;;16.97;12.97;;;;;;;22.27;100.00;63184.03;5101502;28;20215;-75
2022/07/25 03:13:29;;;;;;;15.20;13.67;;;;;;;21.97;100.00;63151.56;5092280;28;20192;-75
2022/07/25 03:15:56;;;;;;;19.37;14.10;;;;;;;22.22;100.00;63183.25;5082828;28;20195;-76
2022/07/25 03:18:23;;;;;;;15.40;12.83;;;;;;;22.28;100.00;63185.13;5092093;28;20195;-77
2022/07/25 03:20:51;;;;;;;21.43;13.33;;;;;;;22.29;100.00;63186.22;5081474;28;20228;-77
2022/07/25 03:23:19;;;;;;;15.27;13.67;;;;;;;22.30;100.00;63191.94;5076102;28;20192;-75
2022/07/25 03:25:46;;;;;;;16.03;13.93;;;;;;;22.29;100.00;63188.81;5092082;28;20206;-77
2022/07/25 03:28:14;;;;;;;16.03;14.30;;;;;;;22.16;100.00;63174.16;5088356;28;20220;-74
2022/07/25 03:30:41;;;;;;;15.17;13.63;;;;;;;22.17;100.00;63183.06;5071879;28;20273;-74
2022/07/25 03:33:11;;;;;;;14.43;12.97;;;;;;;21.83;100.00;63136.41;5084784;28;20207;-77
2022/07/25 03:35:38;;;;;;;17.73;14.17;;;;;;;22.00;100.00;63159.44;5083870;28;20200;-75
2022/07/25 03:38:07;;;;;;;16.23;14.40;;;;;;;21.90;100.00;63149.16;5091201;28;20214;-76
2022/07/25 03:40:35;;;;;;;15.43;13.83;;;;;;;22.04;100.00;63158.56;5091973;28;20276;-76
2022/07/25 03:43:02;;;;;;;17.00;14.07;;;;;;;21.83;100.00;63139.00;5091753;28;20199;-75
2022/07/25 03:45:30;;;;;;;19.27;13.93;;;;;;;22.27;100.00;63188.69;5091430;28;20249;-74
2022/07/25 03:47:57;;;;;;;15.70;14.10;;;;;;;21.44;100.00;63094.69;5071354;28;20196;-76
2022/07/25 03:50:24;;;;;;;18.27;14.07;;;;;;;22.27;100.00;63186.66;5073593;28;20261;-74
2022/07/25 03:52:51;;;;;;;18.43;13.97;;;;;;;22.35;100.00;63197.34;5082021;28;20626;-75
2022/07/25 03:55:20;;;;;;;19.57;14.53;;;;;;;22.41;100.00;63204.41;5075082;28;20200;-75
2022/07/25 03:57:47;;;;;;;23.90;14.90;;;;;;;21.64;100.00;63118.38;5081052;28;20191;-76
2022/07/25 04:00:16;;;;;;;25.60;14.77;;;;;;;22.54;100.00;63213.28;5080883;28;20224;-76
2022/07/25 04:02:43;;;;;;;24.67;14.80;;;;;;;22.49;100.00;63212.53;5071425;28;20196;-76
2022/07/25 04:05:10;;;;;;;26.00;15.13;;;;;;;22.88;100.00;63249.59;5071396;28;20196;-76
2022/07/25 04:07:38;;;;;;;18.50;13.97;;;;;;;23.07;100.00;63274.88;5071330;28;20210;-75
2022/07/25 04:10:09;;;;;;;18.77;14.10;;;;;;;22.94;100.00;63255.59;5090723;28;20219;-75
2022/07/25 04:12:38;;;;;;;16.33;13.13;;;;;;;22.49;100.00;63207.88;5079388;28;20316;-74
2022/07/25 04:15:06;;;;;;;14.47;12.00;;;;;;;23.13;100.00;63278.75;5073751;28;20204;-77
2022/07/25 04:17:35;;;;;;;15.07;12.27;;;;;;;23.25;100.00;63291.78;5087222;28;20203;-74
2022/07/25 04:20:02;;;;;;;16.10;11.80;;;;;;;23.45;100.00;63316.09;5091266;28;20694;-75
2022/07/25 04:22:31;;;;;;;17.17;12.30;;;;;;;23.64;100.00;63330.94;5090754;28;20191;-76
2022/07/25 04:24:58;;;;;;;16.40;11.70;;;;;;;23.79;100.00;63352.41;5082761;28;20194;-77
2022/07/25 04:27:26;;;;;;;11.80;10.20;;;;;;;23.99;100.00;63369.44;5071408;28;20695;-76
2022/07/25 04:29:57;;;;;;;12.43;9.73;;;;;;;23.88;100.00;63362.72;5071119;28;20674;-76
2022/07/25 04:32:24;;;;;;;12.60;9.37;;;;;;;24.06;100.00;63382.28;5071523;28;20633;-78
2022/07/25 04:34:54;;;;;;;12.17;9.20;;;;;;;24.09;100.00;63379.78;5082620;28;20193;-75
2022/07/25 04:37:21;;;;;;;10.20;8.80;;;;;;;24.13;100.00;63384.66;5094859;28;20271;-75
2022/07/25 04:39:48;;;;;;;14.73;9.17;;;;;;;24.36;100.00;63409.09;5095455;28;20201;-76
2022/07/25 04:42:15;;;;;;;16.40;9.13;;;;;;;24.26;100.00;63398.22;5091327;28;20195;-74
2022/07/25 04:44:42;;;;;;;13.00;8.67;;;;;;;23.71;100.00;63339.06;5080230;28;20202;-76
2022/07/25 04:47:11;;;;;;;10.03;8.23;;;;;;;24.49;100.00;63423.19;5074944;28;20674;-73
2022/07/25 04:49:38;;;;;;;10.87;8.60;;;;;;;24.65;100.00;63450.97;5074354;28;20205;-75
2022/07/25 04:52:06;;;;;;;10.43;8.27;;;;;;;24.02;100.00;63374.78;5083342;28;20199;-75
2022/07/25 04:54:33;;;;;;;12.83;8.27;;;;;;;24.75;100.00;63454.03;5096559;28;20224;-75
2022/07/25 04:57:03;;;;;;;9.80;8.50;;;;;;;24.96;100.00;63479.44;5094342;28;20197;-74
2022/07/25 04:59:31;;;;;;;10.73;8.43;;;;;;;25.16;100.00;63498.00;5074919;28;20611;-78
2022/07/25 05:01:58;;;;;;;11.10;8.70;;;;;;;25.10;100.00;63486.28;5093476;28;20287;-75
2022/07/25 05:04:27;;;;;;;11.67;9.30;;;;;;;25.21;100.00;63503.44;5094359;28;20205;-74
2022/07/25 05:06:55;;;;;;;14.57;10.07;;;;;;;25.26;100.00;63505.72;5094222;28;20644;-74
2022/07/25 05:09:22;;;;;;;13.93;8.20;;;;;;;25.39;100.00;63525.63;5094101;28;20210;-74
2022/07/25 05:11:50;;;;;;;16.03;8.50;;;;;;;25.32;100.00;63512.78;5070905;28;20206;-75
2022/07/25 05:14:17;;;;;;;9.23;7.57;;;;;;;25.37;100.00;63518.22;5084636;28;20212;-76
2022/07/25 05:16:46;;;;;;;10.90;8.53;;;;;;;24.35;100.00;63412.66;5090752;28;20200;-76
2022/07/25 05:19:13;;;;;;;11.73;8.17;;;;;;;25.24;100.00;63506.69;5092269;28;20285;-76
2022/07/25 05:21:41;;;;;;;11.47;8.37;;;;;;;25.30;100.00;63513.22;5082680;28;20234;-76
2022/07/25 05:24:09;;;;;;;15.30;8.37;;;;;;;25.53;100.00;63535.63;5078395;28;20572;-74
2022/07/25 05:26:36;;;;;;;10.83;7.87;;;;;;;25.71;100.00;63555.19;5074774;28;20678;-76
2022/07/25 05:29:04;;;;;;;13.60;7.97;;;;;;;25.88;100.00;63575.69;5087478;28;20204;-75
2022/07/25 05:31:30;;;;;;;9.37;7.97;;;;;;;26.05;100.00;63593.66;5074207;28;20203;-77
2022/07/25 05:34:00;;;;;;;10.43;7.23;;;;;;;26.11;100.00;63602.78;5085889;28;20192;-75
2022/07/25 05:36:27;;;;;;;8.60;7.40;;;;;;;26.31;100.00;63619.31;5074085;28;20274;-75
2022/07/25 05:38:56;;;;;;;8.93;7.70;;;;;;;26.28;100.00;63621.28;5085967;28;20624;-75
2022/07/25 05:41:23;;;;;;;12.10;8.10;;;;;;;26.39;100.00;63628.00;5073549;28;20224;-75
2022/07/25 05:43:51;;;;;;;10.67;7.70;;;;;;;26.53;100.00;63643.22;5078216;28;20220;-76
2022/07/25 05:46:18;;;;;;;10.13;7.50;;;;;;;26.65;100.00;63656.28;5092660;28;20243;-76
2022/07/25 05:48:45;;;;;;;11.40;7.80;;;;;;;26.60;100.00;63650.84;5092738;28;20243;-76
2022/07/25 05:51:13;;;;;;;8.77;7.63;;;;;;;27.00;100.00;63699.59;5093232;28;20268;-75
2022/07/25 05:53:40;;;;;;;11.27;7.50;;;;;;;27.09;100.00;63703.59;5093070;28;20202;-77
2022/07/25 05:56:09;;;;;;;12.47;7.93;;;;;;;27.24;100.00;63719.94;5093229;28;20215;-76
2022/07/25 05:58:39;;;;;;;11.97;7.90;;;;;;;26.83;100.00;63673.25;5093272;28;20571;-77
2022/07/25 06:01:07;;;;;;;8.47;7.33;;;;;;;27.15;100.00;63710.69;5093156;28;20705;-75
2022/07/25 06:03:34;;;;;;;9.00;7.40;;;;;;;27.28;100.00;63730.06;5093191;28;20191;-77
2022/07/25 06:06:02;;;;;;;9.93;7.53;;;;;;;27.43;100.00;63740.63;5093246;28;20196;-76
2022/07/25 06:08:29;;;;;;;12.23;8.03;;;;;;;27.23;100.00;63724.63;5093329;28;20192;-76
2022/07/25 06:10:58;;;;;;;10.47;7.17;;;;;;;27.20;100.00;63718.75;5092784;28;20203;-74
2022/07/25 06:13:27;;;;;;;11.43;8.10;;;;;;;26.92;100.00;63690.91;5090770;28;20283;-76
2022/07/25 06:15:54;;;;;;;9.53;7.60;;;;;;;27.03;100.00;63697.63;5073776;28;20200;-75
2022/07/25 06:18:21;;;;;;;8.30;7.40;;;;;;;27.40;100.00;63737.34;5079456;28;20187;-76
2022/07/25 06:20:49;;;;;;;11.83;7.77;;;;;;;27.46;100.00;63749.66;5076852;28;20753;-75
2022/07/25 06:23:16;;;;;;;8.20;7.50;;;;;;;27.22;100.00;63718.31;5073127;28;20203;-73
2022/07/25 06:25:43;;;;;;;9.63;7.50;;;;;;;27.51;100.00;63749.88;5073949;28;20200;-75
2022/07/25 06:28:12;;;;;;;14.70;7.60;;;;;;;27.86;100.00;63792.66;5074183;28;20196;-75
2022/07/25 06:30:42;;;;;;;11.43;7.40;;;;;;;28.24;100.00;63830.88;5073793;28;20236;-76
2022/07/25 06:33:09;;;;;;;13.00;7.73;;;;;;;28.34;100.00;63844.38;5073265;28;20204;-75
2022/07/25 06:35:38;;;;;;;11.70;7.60;;;;;;;28.47;100.00;63853.31;5073146;28;20562;-75
2022/07/25 06:38:06;;;;;;;8.73;7.33;;;;;;;28.84;100.00;63891.00;5073555;28;20229;-77
2022/07/25 06:40:33;;;;;;;8.33;7.17;;;;;;;28.77;100.00;63886.00;5073416;28;20196;-75
2022/07/25 06:43:00;;;;;;;17.83;7.57;;;;;;;29.25;100.00;63937.22;5073291;28;20224;-77
2022/07/25 06:45:29;;;;;;;14.07;7.33;;;;;;;29.25;100.00;63937.78;5073791;28;20194;-76
2022/07/25 06:47:57;;;;;;;8.57;7.20;;;;;;;29.48;100.00;63962.84;5073502;28;20613;-76
2022/07/25 06:50:26;;;;;;;9.80;7.23;;;;;;;29.44;100.00;63963.19;5078616;28;20189;-74
2022/07/25 06:52:54;;;;;;;10.73;7.60;;;;;;;29.28;100.00;63940.50;5077690;28;20254;-76
2022/07/25 06:55:22;;;;;;;13.00;7.90;;;;;;;29.07;100.00;63923.41;5074404;28;20213;-76
2022/07/25 06:57:49;;;;;;;12.30;8.10;;;;;;;29.18;100.00;63930.69;5073335;28;20195;-75
2022/07/25 07:00:16;;;;;;;9.87;7.63;;;;;;;29.11;100.00;63923.06;5074329;28;20194;-75
2022/07/25 07:02:57;;;;;;;10.13;7.87;;;;;;;28.88;100.00;63897.44;5073371;28;20226;-75
2022/07/25 07:05:30;;;;;;;7.40;6.60;;;;;;;28.50;100.00;63861.25;5061877;28;20212;-76
2022/07/25 07:07:58;;;;;;;9.83;7.80;;;;;;;29.49;100.00;63966.00;5074942;28;20208;-75
2022/07/25 07:10:27;;;;;;;9.30;8.07;;;;;;;29.32;100.00;63944.88;5078368;28;20204;-73
2022/07/25 07:13:04;;;;;;;8.53;7.63;;;;;;;29.28;100.00;63948.38;5074666;28;20284;-75
2022/07/25 07:15:32;;;;;;;9.17;7.93;;;;;;;29.44;100.00;63961.09;5065356;28;20205;-76
2022/07/25 07:18:01;;;;;;;8.80;8.00;;;;;;;29.11;100.00;63927.75;5078262;28;20206;-76
2022/07/25 07:20:29;;;;;;;10.03;7.90;;;;;;;28.93;100.00;63903.44;5072495;28;20219;-75
2022/07/25 07:22:56;;;;;;;11.73;7.83;;;;;;;29.20;100.00;63932.31;5072502;28;20277;-75
2022/07/25 07:25:24;;;;;;;9.67;7.73;;;;;;;29.15;100.00;63930.06;5071654;28;20207;-76
2022/07/25 07:27:52;;;;;;;9.47;8.57;;;;;;;28.97;100.00;63907.81;5072662;28;20699;-75
2022/07/25 07:30:21;;;;;;;9.53;8.10;;;;;;;29.13;100.00;63925.22;5072283;28;20542;-75
2022/07/25 07:32:48;;;;;;;9.57;8.07;;;;;;;29.63;100.00;63979.19;5072459;28;20289;-76
2022/07/25 07:35:17;;;;;;;9.43;8.43;;;;;;;29.72;100.00;63993.75;5072479;28;20210;-74
2022/07/25 07:37:47;;;;;;;9.57;8.27;;;;;;;29.74;100.00;63990.66;5072091;28;20664;-75
2022/07/25 07:40:15;;;;;;;11.47;7.60;;;;;;;29.89;100.00;64009.63;5072035;28;20196;-75
2022/07/25 07:42:43;;;;;;;8.70;7.80;;;;;;;30.03;100.00;64019.66;5072719;28;20758;-74
2022/07/25 07:45:12;;;;;;;12.93;7.97;;;;;;;29.66;100.00;63981.94;5072190;28;20206;-76
2022/07/25 07:47:40;;;;;;;10.07;8.13;;;;;;;29.50;100.00;63964.50;5072652;28;20281;-76
2022/07/25 07:50:10;;;;;;;8.67;7.67;;;;;;;29.61;100.00;63974.38;5070582;28;20204;-77
2022/07/25 07:52:38;;;;;;;11.13;8.00;;;;;;;30.11;100.00;64031.00;5072569;28;20206;-80
2022/07/25 07:57:54;;;;;;;8.30;7.43;;;;;;;30.46;100.00;64063.94;5061070;28;20206;-75
2022/07/25 08:00:22;;;;;;;16.80;8.27;;;;;;;30.74;100.00;64097.13;5071517;28;20217;-75
2022/07/25 08:02:51;;;;;;;8.40;7.63;;;;;;;31.30;100.00;64162.41;5080638;28;20708;-76
2022/07/25 08:05:22;;;;;;;9.47;8.50;;;;;;;31.48;100.00;64180.00;5091097;28;20197;-75
2022/07/25 08:07:50;;;;;;;11.77;9.37;;;;;;;30.75;100.00;64103.47;5091199;28;20245;-77
2022/07/25 08:10:21;;;;;;;8.80;7.37;;;;;;;31.28;100.00;64157.59;5093368;28;20195;-75
2022/07/25 08:12:48;;;;;;;10.47;8.07;;;;;;;30.96;100.00;64122.69;5095654;28;20195;-75
2022/07/25 08:15:17;;;;;;;9.43;8.00;;;;;;;31.37;100.00;64165.34;5076726;28;20212;-76
2022/07/25 08:17:44;;;;;;;8.30;7.50;;;;;;;31.68;100.00;64201.28;5074934;28;20667;-75
2022/07/25 08:20:13;;;;;;;8.57;7.67;;;;;;;31.85;100.00;64225.13;5075989;28;20216;-76
2022/07/25 08:22:42;;;;;;;9.30;7.83;;;;;;;31.90;100.00;64222.69;5075799;28;20712;-75
2022/07/25 08:25:10;;;;;;;10.00;7.80;;;;;;;31.96;100.00;64234.53;5075888;28;20212;-75
2022/07/25 08:27:39;;;;;;;9.67;7.83;;;;;;;31.27;100.00;64159.16;5086110;28;20279;-78
2022/07/25 08:30:08;;;;;;;11.07;8.50;;;;;;;32.39;100.00;64276.22;5086800;28;20564;-75
2022/07/25 08:32:46;;;;;;;11.53;8.03;;;;;;;32.34;100.00;64276.03;5095027;28;20199;-75
2022/07/25 08:35:14;;;;;;;11.33;8.07;;;;;;;32.36;100.00;64278.22;5094100;28;20214;-76
2022/07/25 08:37:41;;;;;;;11.23;7.90;;;;;;;31.81;100.00;64212.88;5074961;28;20192;-76
2022/07/25 08:40:09;;;;;;;14.13;8.20;;;;;;;32.18;100.00;64255.91;5089007;28;20255;-74
2022/07/25 08:42:36;;;;;;;10.37;7.57;;;;;;;31.86;100.00;64220.94;5095010;28;20219;-76
2022/07/25 08:45:07;;;;;;;10.73;7.30;;;;;;;31.77;100.00;64211.13;5093054;28;20202;-76
2022/07/25 08:47:35;;;;;;;8.90;8.00;;;;;;;31.92;100.00;64227.53;5090440;28;20613;-73
2022/07/25 08:50:05;;;;;;;9.07;7.90;;;;;;;32.10;100.00;64247.19;5078806;28;20209;-75
2022/07/25 08:52:35;;;;;;;10.90;7.53;;;;;;;32.27;100.00;64265.75;5085023;28;20202;-77
2022/07/25 08:55:04;;;;;;;9.70;8.63;;;;;;;31.97;100.00;64233.00;5094289;28;20224;-75
2022/07/25 08:57:35;;;;;;;10.43;8.27;;;;;;;32.12;100.00;64249.38;5074788;28;20205;-75
2022/07/25 09:00:03;;;;;;;9.63;8.10;;;;;;;32.44;100.00;64286.97;5074349;28;20201;-77
2022/07/25 09:02:35;;;;;;;8.83;7.90;;;;;;;32.26;100.00;64264.09;5072971;28;20231;-78
2022/07/25 09:05:01;;;;;;;9.57;7.67;;;;;;;32.33;100.00;64277.59;5074279;28;20197;-77
2022/07/25 09:07:33;;;;;;;8.30;7.53;;;;;;;32.41;100.00;64286.34;5073888;28;20198;-76
2022/07/25 09:10:12;;;;;;;8.90;8.10;;;;;;;32.78;100.00;64317.78;5073907;28;20197;-76
2022/07/25 09:12:39;;;;;;;9.40;7.97;;;;;;;31.77;100.00;64211.13;5074133;28;20206;-76
2022/07/25 09:15:08;;;;;;;10.50;7.80;;;;;;;32.33;100.00;64274.94;5076975;28;20197;-75
2022/07/25 09:17:36;;;;;;;10.33;7.70;;;;;;;32.45;100.00;64290.19;5073991;28;20197;-75
2022/07/25 09:20:05;;;;;;;10.17;7.77;;;;;;;32.16;100.00;64256.38;5073840;28;20222;-75
2022/07/25 09:22:43;;;;;;;9.40;7.70;;;;;;;32.70;100.00;64311.66;5075016;28;20220;-76
2022/07/25 09:25:21;;;;;;;11.17;8.00;;;;;;;32.77;100.00;64319.31;5086022;28;20267;-77
2022/07/25 09:27:48;;;;;;;9.30;7.87;;;;;;;33.02;100.00;64346.66;5067811;28;20230;-75
2022/07/25 09:30:16;;;;;;;8.20;7.47;;;;;;;32.46;100.00;64285.44;5092723;28;20199;-75
2022/07/25 09:32:45;;;;;;;8.80;7.80;;;;;;;32.80;100.00;64322.59;5080931;28;20197;-77
2022/07/25 09:35:12;;;;;;;10.73;7.33;;;;;;;32.79;100.00;64321.50;5093781;28;20198;-77
2022/07/25 09:37:40;;;;;;;8.77;7.27;;;;;;;32.77;100.00;64319.31;5093999;28;20536;-78
2022/07/25 09:40:15;;;;;;;8.37;7.50;;;;;;;33.29;100.00;64376.16;5093395;28;20198;-76
2022/07/25 09:42:45;;;;;;;9.30;8.30;;;;;;;32.87;100.00;64330.78;5093377;28;20256;-77
2022/07/25 09:45:14;;;;;;;8.57;7.77;;;;;;;32.68;100.00;64309.50;5093392;28;20206;-75
2022/07/25 09:47:54;;;;;;;11.23;7.70;;;;;;;33.26;100.00;64375.53;5093789;28;20197;-75
2022/07/25 09:50:23;;;;;;;8.73;7.67;;;;;;;33.35;100.00;64385.38;5093370;28;20190;-76
2022/07/25 09:52:51;;;;;;;10.17;7.57;;;;;;;33.12;100.00;64357.59;5093410;28;20210;-75
2022/07/25 09:55:19;;;;;;;9.60;7.67;;;;;;;32.30;100.00;64268.47;5093211;28;20209;-77
2022/07/25 09:57:48;;;;;;;9.57;7.50;;;;;;;32.01;100.00;64237.34;5092727;28;20297;-76
2022/07/25 10:00:22;;;;;;;10.33;7.30;;;;;;;32.47;100.00;64286.53;5093156;28;20197;-76
2022/07/25 10:02:56;;;;;;;9.33;7.47;;;;;;;32.66;100.00;64302.03;5092340;28;20228;-76
2022/07/25 10:05:32;;;;;;;8.37;7.57;;;;;;;33.01;100.00;64351.41;5092804;28;20210;-77
2022/07/25 10:08:00;;;;;;;8.13;7.30;;;;;;;33.09;100.00;64354.31;5091938;28;20202;-76
2022/07/25 10:10:30;;;;;;;10.37;7.10;;;;;;;33.43;100.00;64391.47;5093091;28;20199;-76
2022/07/25 10:13:09;;;;;;;11.87;9.13;;;;;;;32.97;100.00;64343.84;5092162;28;20629;-75
2022/07/25 10:15:43;;;;;;;9.30;6.67;;;;;;;33.90;95.15;64442.91;5068318;28;20224;-75
2022/07/25 10:18:11;;;;;;;7.40;6.53;;;;;;;33.02;90.98;64344.03;5093073;28;20203;-77
2022/07/25 10:20:40;;;;;;;7.90;6.73;;;;;;;33.61;91.31;64413.81;5084033;28;20224;-76
2022/07/25 10:23:19;;;;;;;7.30;6.50;;;;;;;33.32;94.55;64379.47;5072772;28;20235;-77
2022/07/25 10:25:46;;;;;;;8.87;7.00;;;;;;;34.30;96.11;64485.59;5073024;28;20209;-78
2022/07/25 10:28:18;;;;;;;12.33;7.03;;;;;;;34.09;88.90;64465.25;5090960;28;20193;-76
2022/07/25 10:30:46;;;;;;;10.53;6.77;;;;;;;34.88;84.53;64549.06;5092828;28;20679;-77
2022/07/25 10:33:20;;;;;;;11.47;6.77;;;;;;;34.89;79.33;64550.72;5091541;28;20198;-77
2022/07/25 10:35:47;;;;;;;7.03;6.40;;;;;;;35.11;78.73;64576.94;5092767;28;20212;-74
2022/07/25 10:38:14;;;;;;;7.40;6.57;;;;;;;34.79;83.28;64537.13;5061980;28;20205;-75
2022/07/25 10:40:43;;;;;;;7.60;6.80;;;;;;;34.53;87.06;64510.78;5074150;28;20199;-74
2022/07/25 10:43:14;;;;;;;7.10;6.40;;;;;;;33.69;85.61;64419.94;5087681;28;20233;-76
2022/07/25 10:45:49;;;;;;;11.77;6.90;;;;;;;34.17;88.09;64474.00;5092699;28;20211;-75
2022/07/25 10:48:24;;;;;;;8.13;6.03;;;;;;;34.72;75.71;64532.13;5082433;28;20205;-75
2022/07/25 10:50:57;;;;;;;8.07;6.60;;;;;;;34.93;81.43;64554.00;5085974;28;20206;-77
2022/07/25 10:53:30;;;;;;;10.13;6.80;;;;;;;34.62;78.61;64520.63;5072727;28;20205;-75
2022/07/25 10:55:58;;;;;;;6.50;5.87;;;;;;;35.04;69.08;64563.97;5073795;28;20206;-77
2022/07/25 10:58:26;;;;;;;6.27;5.67;;;;;;;34.77;70.84;64537.59;5092253;28;20278;-76
2022/07/25 11:00:56;;;;;;;8.20;6.07;;;;;;;34.59;77.81;64517.34;5091517;28;20220;-75
2022/07/25 11:03:32;;;;;;;7.57;6.43;;;;;;;34.92;76.41;64553.47;5082744;28;20223;-76
2022/07/25 11:06:00;;;;;;;9.60;6.23;;;;;;;35.55;75.33;64625.13;5095081;28;20206;-76
2022/07/25 11:08:42;;;;;;;7.07;6.47;;;;;;;35.94;64.58;64661.47;5099922;28;20321;-74
2022/07/25 11:11:09;;;;;;;6.07;5.57;;;;;;;35.88;63.63;64657.53;5066791;28;20195;-75
2022/07/25 11:13:38;;;;;;;6.60;6.00;;;;;;;35.87;65.49;64657.00;5077926;28;20210;-76
2022/07/25 11:16:08;;;;;;;6.73;6.03;;;;;;;35.95;58.46;64665.78;5071953;28;20199;-75
2022/07/25 11:18:39;;;;;;;6.97;6.00;;;;;;;35.84;57.42;64653.16;5072411;28;20211;-75
2022/07/25 11:21:08;;;;;;;8.33;5.73;;;;;;;35.97;60.90;64667.41;5072046;28;20232;-77
2022/07/25 11:23:36;;;;;;;6.97;4.87;;;;;;;36.42;57.60;64717.28;5071725;28;20247;-79
2022/07/25 11:26:10;;;;;;;6.80;6.03;;;;;;;36.68;56.33;64745.25;5071973;28;20234;-78